createdAt,value
2018-12-22T00:01:47.308Z,25.10
2018-12-22T00:04:15.746Z,31.70
2018-12-22T00:06:44.372Z,30.80
2018-12-22T00:09:12.869Z,30.60
2018-12-22T00:11:41.328Z,24.93
2018-12-22T00:14:09.810Z,20.50
2018-12-22T00:16:38.336Z,33.33
2018-12-22T00:19:06.953Z,28.73
2018-12-22T00:21:35.406Z,29.97
2018-12-22T00:24:03.866Z,24.20
2018-12-22T00:26:32.365Z,32.23
2018-12-22T00:29:00.874Z,23.53
2018-12-22T00:31:29.410Z,25.87
2018-12-22T00:33:57.934Z,23.43
2018-12-22T00:36:26.503Z,29.10
2018-12-22T00:38:55.203Z,38.03
2018-12-22T00:41:23.663Z,30.70
2018-12-22T00:43:52.293Z,30.90
2018-12-22T00:46:20.732Z,23.57
2018-12-22T00:48:49.381Z,26.17
2018-12-22T00:51:18.107Z,26.07
2018-12-22T00:53:46.602Z,28.97
2018-12-22T00:56:17.290Z,35.70
2018-12-22T00:58:45.857Z,25.03
2018-12-22T01:01:14.792Z,34.27
2018-12-22T01:03:43.653Z,26.47
2018-12-22T01:06:12.169Z,34.23
2018-12-22T01:08:41.207Z,28.07
2018-12-22T01:11:09.868Z,30.10
2018-12-22T01:13:38.612Z,27.27
2018-12-22T01:16:07.385Z,24.87
2018-12-22T01:18:36.168Z,26.73
2018-12-22T01:21:05.106Z,30.87
2018-12-22T01:23:33.736Z,24.93
2018-12-22T01:26:02.261Z,28.20
2018-12-22T01:28:39.241Z,31.40
2018-12-22T01:31:01.536Z,25.23
2018-12-22T01:33:30.138Z,32.87
2018-12-22T01:35:58.765Z,28.33
2018-12-22T01:38:27.340Z,35.33
2018-12-22T01:40:55.882Z,29.23
2018-12-22T01:43:24.496Z,40.67
2018-12-22T01:46:11.375Z,38.80
2018-12-22T01:48:39.899Z,33.43
2018-12-22T01:51:08.426Z,25.40
2018-12-22T01:53:36.919Z,27.23
2018-12-22T01:56:05.391Z,28.13
2018-12-22T01:58:33.871Z,31.63
2018-12-22T02:01:02.432Z,28.13
2018-12-22T02:03:30.922Z,21.03
2018-12-22T02:05:59.469Z,23.07
2018-12-22T02:08:28.117Z,23.80
2018-12-22T02:10:56.650Z,28.27
2018-12-22T02:13:25.207Z,34.23
2018-12-22T02:15:53.725Z,22.73
2018-12-22T02:18:22.291Z,32.73
2018-12-22T02:20:51.070Z,31.37
2018-12-22T02:23:19.662Z,34.77
2018-12-22T02:25:48.245Z,27.50
2018-12-22T02:28:16.785Z,33.17
2018-12-22T02:30:45.303Z,27.50
2018-12-22T02:33:13.794Z,34.37
2018-12-22T02:35:42.304Z,33.37
2018-12-22T02:38:10.845Z,25.80
2018-12-22T02:40:39.332Z,34.03
2018-12-22T02:43:07.862Z,31.07
2018-12-22T02:45:36.364Z,25.67
2018-12-22T02:48:04.835Z,32.10
2018-12-22T02:50:33.376Z,27.37
2018-12-22T02:53:01.873Z,29.20
2018-12-22T02:55:30.432Z,20.27
2018-12-22T02:57:58.912Z,22.57
2018-12-22T03:00:27.449Z,34.97
2018-12-22T03:02:55.973Z,26.47
2018-12-22T03:05:24.509Z,25.30
2018-12-22T03:07:53.139Z,24.27
2018-12-22T03:10:21.730Z,22.43
2018-12-22T03:12:50.476Z,21.57
2018-12-22T03:15:18.953Z,25.80
2018-12-22T03:17:47.446Z,22.87
2018-12-22T03:20:15.964Z,28.40
2018-12-22T03:22:44.424Z,26.93
2018-12-22T03:25:12.930Z,24.50
2018-12-22T03:27:41.491Z,19.63
2018-12-22T03:30:10.034Z,26.70
2018-12-22T03:32:38.523Z,18.23
2018-12-22T03:35:07.041Z,24.63
2018-12-22T03:37:35.486Z,21.37
2018-12-22T03:40:08.490Z,27.70
2018-12-22T03:42:36.991Z,32.10
2018-12-22T03:45:05.972Z,19.00
2018-12-22T03:47:34.410Z,19.30
2018-12-22T03:50:02.931Z,20.77
2018-12-22T03:52:31.411Z,26.57
2018-12-22T03:54:59.931Z,20.80
2018-12-22T03:57:28.427Z,21.97
2018-12-22T03:59:56.948Z,18.87
2018-12-22T04:02:25.400Z,18.13
2018-12-22T04:04:53.917Z,24.07
2018-12-22T04:07:22.399Z,19.77
2018-12-22T04:09:50.901Z,15.53
2018-12-22T04:12:19.453Z,19.40
2018-12-22T04:14:47.974Z,13.23
2018-12-22T04:17:16.589Z,20.50
2018-12-22T04:19:45.129Z,22.27
2018-12-22T04:22:13.664Z,15.67
2018-12-22T04:24:42.213Z,12.00
2018-12-22T04:27:10.788Z,13.30
2018-12-22T04:29:39.371Z,16.50
2018-12-22T04:32:07.849Z,14.27
2018-12-22T04:34:36.405Z,10.07
2018-12-22T04:37:04.945Z,12.30
2018-12-22T04:39:33.406Z,8.90
2018-12-22T04:42:01.968Z,11.27
2018-12-22T04:44:30.434Z,7.33
2018-12-22T04:46:59.008Z,12.50
2018-12-22T04:49:27.522Z,8.40
2018-12-22T04:51:56.006Z,8.43
2018-12-22T04:54:25.018Z,7.23
2018-12-22T04:56:53.526Z,8.33
2018-12-22T04:59:22.143Z,9.03
2018-12-22T05:01:50.739Z,12.53
2018-12-22T05:04:19.320Z,6.47
2018-12-22T05:06:47.820Z,7.73
2018-12-22T05:09:16.306Z,9.87
2018-12-22T05:11:44.776Z,8.10
2018-12-22T05:14:13.252Z,6.43
2018-12-22T05:16:41.828Z,8.47
2018-12-22T05:19:10.283Z,4.70
2018-12-22T05:21:38.802Z,7.00
2018-12-22T05:24:07.402Z,6.00
2018-12-22T05:26:35.980Z,4.47
2018-12-22T05:29:04.535Z,4.00
2018-12-22T05:31:33.344Z,2.20
2018-12-22T05:34:01.857Z,4.77
2018-12-22T05:36:30.306Z,5.80
2018-12-22T05:38:58.750Z,8.03
2018-12-22T05:41:27.277Z,10.00
2018-12-22T05:43:55.739Z,6.93
2018-12-22T05:46:24.150Z,5.80
2018-12-22T05:48:52.716Z,5.93
2018-12-22T05:51:21.450Z,4.87
2018-12-22T05:53:50.001Z,9.67
2018-12-22T05:56:18.516Z,6.43
2018-12-22T05:58:47.036Z,7.53
2018-12-22T06:01:15.711Z,8.47
2018-12-22T06:03:44.235Z,6.07
2018-12-22T06:06:12.681Z,8.30
2018-12-22T06:08:41.271Z,6.83
2018-12-22T06:11:09.803Z,7.47
2018-12-22T06:13:38.293Z,7.40
2018-12-22T06:16:06.791Z,7.83
2018-12-22T06:18:35.344Z,5.73
2018-12-22T06:21:03.854Z,9.63
2018-12-22T06:23:32.427Z,5.57
2018-12-22T06:26:00.881Z,3.70
2018-12-22T06:28:29.447Z,7.77
2018-12-22T06:30:57.954Z,7.20
2018-12-22T06:33:26.448Z,5.00
2018-12-22T06:35:54.979Z,6.57
2018-12-22T06:38:23.470Z,2.53
2018-12-22T06:40:51.945Z,2.03
2018-12-22T06:43:20.463Z,2.17
2018-12-22T06:45:48.921Z,2.60
2018-12-22T06:48:17.432Z,1.47
2018-12-22T06:50:45.901Z,2.07
2018-12-22T06:53:14.459Z,2.00
2018-12-22T06:55:42.977Z,0.57
2018-12-22T06:58:11.544Z,0.50
2018-12-22T07:00:40.057Z,0.70
2018-12-22T07:03:08.596Z,2.53
2018-12-22T07:05:37.103Z,0.83
2018-12-22T07:08:05.580Z,1.27
2018-12-22T07:10:34.085Z,1.50
2018-12-22T07:13:02.557Z,0.40
2018-12-22T07:15:31.038Z,1.07
2018-12-22T07:17:59.595Z,2.10
2018-12-22T07:20:28.112Z,1.07
2018-12-22T07:22:56.654Z,1.43
2018-12-22T07:25:25.172Z,2.43
2018-12-22T07:27:53.795Z,1.43
2018-12-22T07:30:26.283Z,1.13
2018-12-22T07:32:57.107Z,1.73
2018-12-22T07:35:23.797Z,2.73
2018-12-22T07:37:52.362Z,1.70
2018-12-22T07:40:20.873Z,2.20
2018-12-22T07:42:49.348Z,1.90
2018-12-22T07:45:23.949Z,3.57
2018-12-22T07:47:52.667Z,3.20
2018-12-22T07:50:21.344Z,1.00
2018-12-22T07:52:51.715Z,1.80
2018-12-22T07:55:20.499Z,1.57
2018-12-22T07:57:49.044Z,2.63
2018-12-22T08:00:17.631Z,1.77
2018-12-22T08:02:47.334Z,3.00
2018-12-22T08:05:17.647Z,7.20
2018-12-22T08:07:46.186Z,6.43
2018-12-22T08:10:14.662Z,4.40
2018-12-22T08:12:43.197Z,3.97
2018-12-22T08:15:11.777Z,5.87
2018-12-22T08:17:40.345Z,3.50
2018-12-22T08:22:56.780Z,4.00
2018-12-22T08:25:25.457Z,5.13
2018-12-22T08:27:53.930Z,3.33
2018-12-22T08:30:22.432Z,5.53
2018-12-22T08:32:50.930Z,5.30
2018-12-22T08:35:19.427Z,3.87
2018-12-22T08:37:47.908Z,4.40
2018-12-22T08:40:16.400Z,6.70
2018-12-22T08:42:44.839Z,4.83
2018-12-22T08:45:13.332Z,5.20
2018-12-22T08:47:41.779Z,6.13
2018-12-22T08:50:11.031Z,8.67
2018-12-22T08:52:39.532Z,4.90
2018-12-22T08:55:08.409Z,3.67
2018-12-22T08:57:37.944Z,6.87
2018-12-22T09:00:09.481Z,4.60
2018-12-22T09:02:37.939Z,3.80
2018-12-22T09:05:06.563Z,4.70
2018-12-22T09:07:35.046Z,5.03
2018-12-22T09:10:03.581Z,4.80
2018-12-22T09:12:32.283Z,6.57
2018-12-22T09:15:00.885Z,2.57
2018-12-22T09:17:29.364Z,4.20
2018-12-22T09:19:57.877Z,5.13
2018-12-22T09:22:26.383Z,6.90
2018-12-22T09:24:54.936Z,7.03
2018-12-22T09:27:23.575Z,5.03
2018-12-22T09:29:52.163Z,5.53
2018-12-22T09:32:20.779Z,4.17
2018-12-22T09:34:49.433Z,7.87
2018-12-22T09:37:18.292Z,5.80
2018-12-22T09:39:46.783Z,4.23
2018-12-22T09:42:15.405Z,5.50
2018-12-22T09:44:44.218Z,8.50
2018-12-22T09:47:12.756Z,2.67
2018-12-22T09:49:43.940Z,7.37
2018-12-22T09:52:12.566Z,4.20
2018-12-22T09:54:41.038Z,6.40
2018-12-22T09:57:09.580Z,8.07
2018-12-22T09:59:38.077Z,5.27
2018-12-22T10:02:06.624Z,5.33
2018-12-22T10:04:35.076Z,7.37
2018-12-22T10:07:03.843Z,5.17
2018-12-22T10:09:32.367Z,6.87
2018-12-22T10:12:01.634Z,6.00
2018-12-22T10:14:30.220Z,7.17
2018-12-22T10:16:59.306Z,7.73
2018-12-22T10:19:28.174Z,4.87
2018-12-22T10:21:56.893Z,3.47
2018-12-22T10:24:25.405Z,6.53
2018-12-22T10:26:54.372Z,3.53
2018-12-22T10:29:23.238Z,5.00
2018-12-22T10:31:52.059Z,4.90
2018-12-22T10:34:20.627Z,5.80
2018-12-22T10:36:49.101Z,9.97
2018-12-22T10:39:18.211Z,5.83
2018-12-22T10:41:46.757Z,7.70
2018-12-22T10:44:15.258Z,4.70
2018-12-22T10:46:44.079Z,10.20
2018-12-22T10:49:13.111Z,3.87
2018-12-22T10:51:42.656Z,7.63
2018-12-22T10:57:00.891Z,7.23
2018-12-22T10:59:30.132Z,7.60
2018-12-22T11:04:45.040Z,5.60
2018-12-22T11:07:14.116Z,6.03
2018-12-22T11:09:42.685Z,9.80
2018-12-22T11:12:11.221Z,6.53
2018-12-22T11:14:39.749Z,5.67
2018-12-22T11:17:08.375Z,4.83
2018-12-22T11:19:36.916Z,5.10
2018-12-22T11:22:05.527Z,10.73
2018-12-22T11:24:34.026Z,8.60
2018-12-22T11:27:02.627Z,7.87
2018-12-22T11:29:31.189Z,7.73
2018-12-22T11:31:59.872Z,8.23
2018-12-22T11:34:28.386Z,9.70
2018-12-22T11:36:57.142Z,4.93
2018-12-22T11:39:25.797Z,8.37
2018-12-22T11:41:54.446Z,6.90
2018-12-22T11:44:23.588Z,3.13
2018-12-22T11:46:53.144Z,6.63
2018-12-22T11:49:39.429Z,7.07
2018-12-22T11:52:08.082Z,8.27
2018-12-22T11:54:36.596Z,4.23
2018-12-22T11:57:05.213Z,9.27
2018-12-22T11:59:33.784Z,7.80
2018-12-22T12:02:09.611Z,5.47
2018-12-22T12:04:32.894Z,6.53
2018-12-22T12:07:01.411Z,8.63
2018-12-22T12:09:29.905Z,6.03
2018-12-22T12:11:58.417Z,5.77
2018-12-22T12:14:27.336Z,3.87
2018-12-22T12:19:06.321Z,6.63
2018-12-22T12:21:35.173Z,7.37
2018-12-22T12:24:03.719Z,9.27
2018-12-22T12:26:32.225Z,8.70
2018-12-22T12:29:00.798Z,7.30
2018-12-22T12:31:29.394Z,8.63
2018-12-22T12:33:57.950Z,11.40
2018-12-22T12:36:26.531Z,8.70
2018-12-22T12:38:55.089Z,9.20
2018-12-22T12:41:23.853Z,6.20
2018-12-22T12:43:52.448Z,8.90
2018-12-22T12:46:21.754Z,5.47
2018-12-22T12:48:50.249Z,11.13
2018-12-22T12:51:18.892Z,7.77
2018-12-22T12:53:47.591Z,7.27
2018-12-22T12:56:16.233Z,9.50
2018-12-22T12:58:45.246Z,10.20
2018-12-22T13:01:13.966Z,16.10
2018-12-22T13:03:42.563Z,12.03
2018-12-22T13:06:11.065Z,10.17
2018-12-22T13:08:39.595Z,10.07
2018-12-22T13:11:08.214Z,8.83
2018-12-22T13:14:14.290Z,7.70
2018-12-22T13:16:42.872Z,11.97
2018-12-22T13:19:11.503Z,8.03
2018-12-22T13:21:42.581Z,15.07
2018-12-22T13:24:11.106Z,10.13
2018-12-22T13:26:39.586Z,9.47
2018-12-22T13:29:08.136Z,11.37
2018-12-22T13:31:36.682Z,7.50
2018-12-22T13:34:05.257Z,9.70
2018-12-22T13:36:34.900Z,7.57
2018-12-22T13:39:12.195Z,9.53
2018-12-22T13:41:40.780Z,10.90
2018-12-22T13:44:10.408Z,11.80
2018-12-22T13:46:38.858Z,8.93
2018-12-22T13:49:07.809Z,6.30
2018-12-22T13:51:37.335Z,8.07
2018-12-22T13:54:05.918Z,7.43
2018-12-22T13:56:34.482Z,5.33
2018-12-22T13:59:04.519Z,7.27
2018-12-22T14:01:36.577Z,9.97
2018-12-22T14:04:05.181Z,9.33
2018-12-22T14:06:38.308Z,3.67
2018-12-22T14:09:08.307Z,5.53
2018-12-22T14:11:37.723Z,3.07
2018-12-22T14:14:07.550Z,2.23
2018-12-22T14:16:44.980Z,2.00
2018-12-22T14:19:15.194Z,3.13
2018-12-22T14:21:45.253Z,4.47
2018-12-22T14:24:49.171Z,3.17
2018-12-22T14:27:19.329Z,3.33
2018-12-22T14:29:48.126Z,1.90
2018-12-22T14:32:16.893Z,7.43
2018-12-22T14:34:50.780Z,2.00
2018-12-22T14:37:19.539Z,3.63
2018-12-22T14:39:48.489Z,3.50
2018-12-22T14:42:17.332Z,3.63
2018-12-22T14:44:46.391Z,4.53
2018-12-22T14:47:15.040Z,6.97
2018-12-22T14:49:43.852Z,2.57
2018-12-22T14:52:13.214Z,3.27
2018-12-22T14:54:42.095Z,5.30
2018-12-22T14:57:12.002Z,3.50
2018-12-22T14:59:40.893Z,7.87
2018-12-22T15:02:10.247Z,5.97
2018-12-22T15:04:38.932Z,5.93
2018-12-22T15:07:08.446Z,4.83
2018-12-22T15:09:37.045Z,11.03
2018-12-22T15:12:05.700Z,11.83
2018-12-22T15:14:34.367Z,10.67
2018-12-22T15:17:02.870Z,8.33
2018-12-22T15:19:32.478Z,10.93
2018-12-22T15:22:01.118Z,9.10
2018-12-22T15:24:29.780Z,9.20
2018-12-22T15:26:58.537Z,4.20
2018-12-22T15:29:27.165Z,7.17
2018-12-22T15:31:55.751Z,5.60
2018-12-22T15:34:24.356Z,5.70
2018-12-22T15:36:52.927Z,9.33
2018-12-22T15:39:21.493Z,11.90
2018-12-22T15:41:50.122Z,8.63
2018-12-22T15:44:18.721Z,8.87
2018-12-22T15:46:47.247Z,7.13
2018-12-22T15:49:18.687Z,7.30
2018-12-22T15:51:47.306Z,11.70
2018-12-22T15:54:15.924Z,11.10
2018-12-22T15:56:44.841Z,11.13
2018-12-22T15:59:13.440Z,11.87
2018-12-22T16:01:42.433Z,8.77
2018-12-22T16:04:11.268Z,13.93
2018-12-22T16:06:40.854Z,13.87
2018-12-22T16:09:09.461Z,9.50
2018-12-22T16:11:38.337Z,9.23
2018-12-22T16:14:06.938Z,14.90
2018-12-22T16:16:35.565Z,12.10
2018-12-22T16:19:04.253Z,10.83
2018-12-22T16:21:33.120Z,9.47
2018-12-22T16:24:01.650Z,12.67
2018-12-22T16:26:30.656Z,13.30
2018-12-22T16:29:09.142Z,12.17
2018-12-22T16:31:37.719Z,10.70
2018-12-22T16:34:06.568Z,10.57
2018-12-22T16:36:35.070Z,8.67
2018-12-22T16:39:05.747Z,3.90
2018-12-22T16:41:34.280Z,8.07
2018-12-22T16:44:02.972Z,9.13
2018-12-22T16:46:31.519Z,6.30
2018-12-22T16:49:00.037Z,5.37
2018-12-22T16:51:28.644Z,13.90
2018-12-22T16:53:57.250Z,10.97
2018-12-22T16:56:26.092Z,12.03
2018-12-22T16:58:57.790Z,13.90
2018-12-22T17:01:39.745Z,11.50
2018-12-22T17:04:08.268Z,9.87
2018-12-22T17:06:38.705Z,10.90
2018-12-22T17:09:08.218Z,14.37
2018-12-22T17:11:36.968Z,11.07
2018-12-22T17:14:05.623Z,10.10
2018-12-22T17:16:34.249Z,12.27
2018-12-22T17:19:02.818Z,12.33
2018-12-22T17:21:41.849Z,13.97
2018-12-22T17:26:17.254Z,16.73
2018-12-22T17:28:45.882Z,12.73
2018-12-22T17:31:14.533Z,11.97
2018-12-22T17:33:43.123Z,16.97
2018-12-22T17:36:11.646Z,14.40
2018-12-22T17:38:40.394Z,18.37
2018-12-22T17:41:08.935Z,11.77
2018-12-22T17:43:39.029Z,14.40
2018-12-22T17:46:07.580Z,14.77
2018-12-22T17:48:36.189Z,11.00
2018-12-22T17:51:04.822Z,18.83
2018-12-22T17:53:33.413Z,13.57
2018-12-22T17:56:01.925Z,10.87
2018-12-22T17:58:30.485Z,13.37
2018-12-22T18:00:59.008Z,11.60
2018-12-22T18:03:33.131Z,10.20
2018-12-22T18:06:01.661Z,16.47
2018-12-22T18:08:30.293Z,15.40
2018-12-22T18:10:58.908Z,15.77
2018-12-22T18:13:28.242Z,14.90
2018-12-22T18:15:56.996Z,12.13
2018-12-22T18:18:25.642Z,18.50
2018-12-22T18:20:54.185Z,15.93
2018-12-22T18:23:22.750Z,15.60
2018-12-22T18:25:51.418Z,14.53
2018-12-22T18:28:19.975Z,16.50
2018-12-22T18:30:48.557Z,15.20
2018-12-22T18:33:17.129Z,17.63
2018-12-22T18:35:45.777Z,18.97
2018-12-22T18:38:14.369Z,11.13
2018-12-22T18:40:42.945Z,15.80
2018-12-22T18:43:11.529Z,18.70
2018-12-22T18:45:40.220Z,18.60
2018-12-22T18:48:08.802Z,14.77
2018-12-22T18:50:37.362Z,19.00
2018-12-22T18:53:05.910Z,15.90
2018-12-22T18:55:34.509Z,15.50
2018-12-22T18:58:04.868Z,16.70
2018-12-22T19:00:33.505Z,11.80
2018-12-22T19:03:02.135Z,19.47
2018-12-22T19:05:30.917Z,22.80
2018-12-22T19:08:05.058Z,15.23
2018-12-22T19:10:45.911Z,14.97
2018-12-22T19:13:14.465Z,12.80
2018-12-22T19:15:43.006Z,20.13
2018-12-22T19:18:11.726Z,13.80
2018-12-22T19:20:46.038Z,13.03
2018-12-22T19:23:14.862Z,16.63
2018-12-22T19:25:43.502Z,9.90
2018-12-22T19:28:12.000Z,20.00
2018-12-22T19:30:40.561Z,20.60
2018-12-22T19:33:09.242Z,21.70
2018-12-22T19:35:37.788Z,14.47
2018-12-22T19:38:06.417Z,11.70
2018-12-22T19:40:34.956Z,10.67
2018-12-22T19:43:03.511Z,13.03
2018-12-22T19:45:32.231Z,17.43
2018-12-22T19:48:00.776Z,9.30
2018-12-22T19:50:29.388Z,9.30
2018-12-22T19:52:57.964Z,8.83
2018-12-22T19:55:26.641Z,9.97
2018-12-22T19:57:55.282Z,6.83
2018-12-22T20:00:23.769Z,9.37
2018-12-22T20:02:52.343Z,7.53
2018-12-22T20:05:20.830Z,5.00
2018-12-22T20:07:49.516Z,8.73
2018-12-22T20:10:18.000Z,8.27
2018-12-22T20:12:46.561Z,8.57
2018-12-22T20:15:15.165Z,10.00
2018-12-22T20:17:47.053Z,15.10
2018-12-22T20:20:15.651Z,13.37
2018-12-22T20:22:44.275Z,11.57
2018-12-22T20:25:12.871Z,16.67
2018-12-22T20:27:47.243Z,14.73
2018-12-22T20:30:15.761Z,20.03
2018-12-22T20:32:44.299Z,15.03
2018-12-22T20:35:12.849Z,14.87
2018-12-22T20:37:41.384Z,12.67
2018-12-22T20:40:10.129Z,17.13
2018-12-22T20:42:38.661Z,22.57
2018-12-22T20:45:07.457Z,16.43
2018-12-22T20:47:36.051Z,20.93
2018-12-22T20:50:04.824Z,14.03
2018-12-22T20:52:33.333Z,11.47
2018-12-22T20:55:01.823Z,13.20
2018-12-22T20:57:30.403Z,16.20
2018-12-22T20:59:59.814Z,11.30
2018-12-22T21:02:28.298Z,10.90
2018-12-22T21:04:56.798Z,15.23
2018-12-22T21:07:25.339Z,21.37
2018-12-22T21:09:53.935Z,14.90
2018-12-22T21:12:22.518Z,13.07
2018-12-22T21:14:51.060Z,14.23
2018-12-22T21:17:19.609Z,16.17
2018-12-22T21:19:48.126Z,20.50
2018-12-22T21:22:16.660Z,10.80
2018-12-22T21:24:45.145Z,14.67
2018-12-22T21:27:13.770Z,17.27
2018-12-22T21:29:42.239Z,12.97
2018-12-22T21:32:10.726Z,14.10
2018-12-22T21:34:39.187Z,14.23
2018-12-22T21:37:07.777Z,16.07
2018-12-22T21:39:36.264Z,18.30
2018-12-22T21:42:04.809Z,15.03
2018-12-22T21:44:33.341Z,11.60
2018-12-22T21:47:01.816Z,15.77
2018-12-22T21:49:30.305Z,13.70
2018-12-22T21:51:58.834Z,15.97
2018-12-22T21:54:27.329Z,13.37
2018-12-22T21:56:55.815Z,17.43
2018-12-22T21:59:24.347Z,20.50
2018-12-22T22:01:52.789Z,12.20
2018-12-22T22:04:21.466Z,16.40
2018-12-22T22:06:49.967Z,14.83
2018-12-22T22:09:19.315Z,15.17
2018-12-22T22:11:47.989Z,15.33
2018-12-22T22:14:16.500Z,15.23
2018-12-22T22:16:45.090Z,20.10
2018-12-22T22:19:13.552Z,20.00
2018-12-22T22:21:42.056Z,15.40
2018-12-22T22:24:10.529Z,13.23
2018-12-22T22:26:38.983Z,18.20
2018-12-22T22:29:07.489Z,11.63
2018-12-22T22:31:35.982Z,13.40
2018-12-22T22:34:04.524Z,18.23
2018-12-22T22:36:33.088Z,15.60
2018-12-22T22:39:01.646Z,15.77
2018-12-22T22:41:30.118Z,15.30
2018-12-22T22:43:58.726Z,16.10
2018-12-22T22:46:27.229Z,11.20
2018-12-22T22:48:55.824Z,12.83
2018-12-22T22:51:24.319Z,18.90
2018-12-22T22:53:52.826Z,14.27
2018-12-22T22:56:21.361Z,25.67
2018-12-22T22:58:49.953Z,16.10
2018-12-22T23:01:18.477Z,13.77
2018-12-22T23:03:47.029Z,17.27
2018-12-22T23:06:15.504Z,17.67
2018-12-22T23:08:43.984Z,14.90
2018-12-22T23:11:12.529Z,10.93
2018-12-22T23:13:41.142Z,22.83
2018-12-22T23:16:09.618Z,14.53
2018-12-22T23:18:38.095Z,18.07
2018-12-22T23:21:07.008Z,15.47
2018-12-22T23:23:35.522Z,17.23
2018-12-22T23:26:04.028Z,15.37
2018-12-22T23:28:32.495Z,20.73
2018-12-22T23:31:01.013Z,16.20
2018-12-22T23:33:29.540Z,18.77
2018-12-22T23:35:58.192Z,14.87
2018-12-22T23:38:26.745Z,18.77
2018-12-22T23:40:55.274Z,20.47
2018-12-22T23:43:23.866Z,19.67
2018-12-22T23:45:52.364Z,23.37
2018-12-22T23:48:20.844Z,15.67
2018-12-22T23:50:49.586Z,19.10
2018-12-22T23:53:18.138Z,17.80
2018-12-22T23:55:46.695Z,16.83
2018-12-22T23:58:15.251Z,16.47
